createdAt,value
2022-09-23T00:01:19.166Z,25.60
2022-09-23T00:03:26.646Z,25.60
2022-09-23T00:05:34.480Z,25.60
2022-09-23T00:07:41.710Z,25.60
2022-09-23T00:09:48.795Z,25.60
2022-09-23T00:11:56.593Z,25.60
2022-09-23T00:14:04.085Z,25.60
2022-09-23T00:16:12.745Z,25.60
2022-09-23T00:18:21.919Z,25.60
2022-09-23T00:20:29.458Z,25.60
2022-09-23T00:22:37.972Z,25.60
2022-09-23T00:24:44.948Z,25.60
2022-09-23T00:26:52.402Z,25.60
2022-09-23T00:28:59.619Z,25.60
2022-09-23T00:31:07.837Z,25.50
2022-09-23T00:33:14.955Z,25.60
2022-09-23T00:35:24.040Z,25.50
2022-09-23T00:37:32.083Z,25.50
2022-09-23T00:39:39.473Z,25.40
2022-09-23T00:41:46.552Z,25.40
2022-09-23T00:43:55.321Z,25.40
2022-09-23T00:46:02.481Z,25.30
2022-09-23T00:48:18.180Z,25.30
2022-09-23T00:50:32.393Z,25.30
2022-09-23T00:52:40.838Z,25.30
2022-09-23T00:54:50.118Z,25.30
2022-09-23T00:56:57.830Z,25.30
2022-09-23T00:59:05.608Z,25.30
2022-09-23T01:01:14.059Z,25.30
2022-09-23T01:03:21.255Z,25.30
2022-09-23T01:05:30.738Z,25.30
2022-09-23T01:07:37.716Z,25.40
2022-09-23T01:09:45.204Z,25.40
2022-09-23T01:11:58.835Z,25.40
2022-09-23T01:14:27.748Z,25.50
2022-09-23T01:16:41.711Z,25.50
2022-09-23T01:18:56.636Z,25.50
2022-09-23T01:21:18.355Z,25.50
2022-09-23T01:24:12.538Z,25.60
2022-09-23T01:26:46.666Z,25.60
2022-09-23T01:29:13.906Z,25.70
2022-09-23T01:31:32.248Z,25.70
2022-09-23T01:33:49.308Z,25.70
2022-09-23T01:36:13.081Z,25.70
2022-09-23T01:38:30.142Z,25.80
2022-09-23T01:40:47.612Z,25.80
2022-09-23T01:42:59.149Z,25.90
2022-09-23T01:45:14.113Z,25.90
2022-09-23T01:47:28.310Z,25.90
2022-09-23T01:49:39.029Z,25.90
2022-09-23T01:51:49.328Z,25.90
2022-09-23T01:54:01.940Z,26.00
2022-09-23T01:56:14.907Z,26.00
2022-09-23T01:58:28.336Z,26.00
2022-09-23T02:00:41.866Z,26.10
2022-09-23T02:02:54.471Z,26.10
2022-09-23T02:05:09.026Z,26.10
2022-09-23T02:07:21.450Z,26.20
2022-09-23T02:09:31.377Z,26.20
2022-09-23T02:11:40.093Z,26.20
2022-09-23T02:13:53.675Z,26.20
2022-09-23T02:16:03.475Z,26.20
2022-09-23T02:18:16.700Z,26.30
2022-09-23T02:20:27.413Z,26.30
2022-09-23T02:22:40.579Z,26.30
2022-09-23T02:24:47.568Z,26.40
2022-09-23T02:26:59.143Z,26.50
2022-09-23T02:29:12.778Z,26.50
2022-09-23T02:31:28.957Z,26.50
2022-09-23T02:33:41.591Z,26.50
2022-09-23T02:35:54.860Z,26.50
2022-09-23T02:38:12.427Z,26.50
2022-09-23T02:40:27.177Z,26.60
2022-09-23T02:42:43.336Z,26.50
2022-09-23T02:44:50.816Z,26.50
2022-09-23T02:46:58.151Z,26.60
2022-09-23T02:49:12.668Z,26.50
2022-09-23T02:51:19.937Z,26.60
2022-09-23T02:53:27.887Z,26.60
2022-09-23T02:55:35.075Z,26.70
2022-09-23T02:57:42.560Z,26.60
2022-09-23T02:59:49.844Z,26.70
2022-09-23T03:02:10.667Z,26.70
2022-09-23T03:04:24.997Z,26.70
2022-09-23T03:06:35.345Z,26.70
2022-09-23T03:08:52.001Z,26.70
2022-09-23T03:11:05.604Z,26.80
2022-09-23T03:13:20.914Z,26.70
2022-09-23T03:15:36.584Z,26.80
2022-09-23T03:17:51.770Z,26.80
2022-09-23T03:20:04.568Z,26.90
2022-09-23T03:22:14.695Z,26.90
2022-09-23T03:24:23.488Z,26.90
2022-09-23T03:26:34.665Z,26.90
2022-09-23T03:28:44.408Z,27.00
2022-09-23T03:30:52.815Z,27.00
2022-09-23T03:33:02.249Z,27.10
2022-09-23T03:35:12.042Z,27.20
2022-09-23T03:37:24.705Z,27.30
2022-09-23T03:39:37.620Z,27.30
2022-09-23T03:41:51.972Z,27.30
2022-09-23T03:44:00.193Z,27.40
2022-09-23T03:46:09.225Z,27.40
2022-09-23T03:48:16.792Z,27.50
2022-09-23T03:50:25.823Z,27.40
2022-09-23T03:52:33.109Z,27.40
2022-09-23T03:54:40.209Z,27.40
2022-09-23T03:56:48.962Z,27.40
2022-09-23T03:58:55.982Z,27.40
2022-09-23T04:01:03.545Z,27.40
2022-09-23T04:03:11.887Z,27.40
2022-09-23T04:05:19.777Z,27.40
2022-09-23T04:07:28.390Z,27.40
2022-09-23T04:09:35.978Z,27.40
2022-09-23T04:11:43.069Z,27.40
2022-09-23T04:13:50.393Z,27.40
2022-09-23T04:15:57.588Z,27.50
2022-09-23T04:18:05.115Z,27.60
2022-09-23T04:20:12.871Z,27.70
2022-09-23T04:22:19.888Z,27.80
2022-09-23T04:24:28.710Z,27.90
2022-09-23T04:26:36.148Z,27.90
2022-09-23T04:28:43.484Z,28.00
2022-09-23T04:30:50.584Z,27.90
2022-09-23T04:32:57.590Z,27.90
2022-09-23T04:35:04.620Z,27.90
2022-09-23T04:37:11.645Z,27.80
2022-09-23T04:39:20.327Z,27.80
2022-09-23T04:41:29.138Z,27.80
2022-09-23T04:43:36.377Z,27.70
2022-09-23T04:45:43.390Z,27.70
2022-09-23T04:47:50.576Z,27.60
2022-09-23T04:49:59.873Z,27.60
2022-09-23T04:52:07.960Z,27.50
2022-09-23T04:54:16.017Z,27.50
2022-09-23T04:56:24.530Z,27.40
2022-09-23T04:58:33.752Z,27.30
2022-09-23T05:00:41.151Z,27.30
2022-09-23T05:02:49.040Z,27.30
2022-09-23T05:04:56.372Z,27.30
2022-09-23T05:07:03.963Z,27.30
2022-09-23T05:09:11.879Z,27.30
2022-09-23T05:11:19.769Z,27.40
2022-09-23T05:13:26.739Z,27.40
2022-09-23T05:15:35.607Z,27.40
2022-09-23T05:17:43.915Z,27.40
2022-09-23T05:19:51.009Z,27.40
2022-09-23T05:21:57.869Z,27.40
2022-09-23T05:24:05.415Z,27.40
2022-09-23T05:26:13.675Z,27.50
2022-09-23T05:28:21.157Z,27.50
2022-09-23T05:30:28.035Z,27.60
2022-09-23T05:32:36.759Z,27.60
2022-09-23T05:34:44.187Z,27.60
2022-09-23T05:36:51.678Z,27.70
2022-09-23T05:38:59.818Z,27.80
2022-09-23T05:41:08.707Z,27.90
2022-09-23T05:43:15.788Z,28.00
2022-09-23T05:45:23.075Z,28.10
2022-09-23T05:47:31.115Z,28.10
2022-09-23T05:49:58.482Z,28.20
2022-09-23T05:52:06.831Z,28.20
2022-09-23T05:54:13.998Z,28.20
2022-09-23T05:56:23.457Z,28.20
2022-09-23T05:58:31.259Z,28.20
2022-09-23T06:00:38.427Z,28.20
2022-09-23T06:02:45.387Z,28.30
2022-09-23T06:04:54.429Z,28.40
2022-09-23T06:07:03.462Z,28.40
2022-09-23T06:09:14.532Z,28.50
2022-09-23T06:11:22.630Z,28.50
2022-09-23T06:13:30.029Z,28.40
2022-09-23T06:15:37.169Z,28.40
2022-09-23T06:17:46.220Z,28.50
2022-09-23T06:19:54.948Z,28.50
2022-09-23T06:22:02.541Z,28.60
2022-09-23T06:24:09.900Z,28.60
2022-09-23T06:26:17.921Z,28.60
2022-09-23T06:28:25.623Z,28.60
2022-09-23T06:30:33.143Z,28.70
2022-09-23T06:32:40.226Z,28.70
2022-09-23T06:34:51.890Z,28.80
2022-09-23T06:37:05.081Z,28.80
2022-09-23T06:39:13.496Z,28.80
2022-09-23T06:41:21.855Z,28.80
2022-09-23T06:43:30.167Z,28.80
2022-09-23T06:45:37.253Z,28.80
2022-09-23T06:47:45.552Z,29.00
2022-09-23T06:49:52.635Z,29.20
2022-09-23T06:52:01.612Z,29.30
2022-09-23T06:54:09.054Z,29.50
2022-09-23T06:56:16.440Z,29.60
2022-09-23T06:58:23.565Z,29.70
2022-09-23T07:00:31.116Z,29.70
2022-09-23T07:02:37.945Z,29.60
2022-09-23T07:04:45.563Z,29.50
2022-09-23T07:06:52.441Z,29.40
2022-09-23T07:09:02.126Z,29.40
2022-09-23T07:11:14.554Z,29.40
2022-09-23T07:13:22.078Z,29.30
2022-09-23T07:15:29.049Z,29.30
2022-09-23T07:17:36.548Z,29.20
2022-09-23T07:19:43.568Z,29.30
2022-09-23T07:21:50.902Z,29.40
2022-09-23T07:23:59.212Z,29.50
2022-09-23T07:26:09.823Z,29.70
2022-09-23T07:28:16.850Z,29.80
2022-09-23T07:30:25.541Z,29.80
2022-09-23T07:32:43.209Z,29.80
2022-09-23T07:34:54.881Z,29.80
2022-09-23T07:37:02.266Z,29.90
2022-09-23T07:39:09.764Z,29.80
2022-09-23T07:41:20.781Z,29.80
2022-09-23T07:43:28.371Z,29.70
2022-09-23T07:45:35.907Z,29.60
2022-09-23T07:47:43.091Z,29.50
2022-09-23T07:49:50.331Z,29.50
2022-09-23T07:51:57.553Z,29.40
2022-09-23T07:54:04.691Z,29.30
2022-09-23T07:56:12.623Z,29.30
2022-09-23T07:58:21.353Z,29.30
2022-09-23T08:00:28.542Z,29.20
2022-09-23T08:02:35.862Z,29.20
2022-09-23T08:04:42.998Z,29.20
2022-09-23T08:06:52.177Z,29.20
2022-09-23T08:09:01.908Z,29.20
2022-09-23T08:11:10.180Z,29.20
2022-09-23T08:13:17.157Z,29.10
2022-09-23T08:15:26.270Z,29.00
2022-09-23T08:17:33.924Z,28.70
2022-09-23T08:19:40.871Z,28.40
2022-09-23T08:21:51.312Z,28.20
2022-09-23T08:23:58.451Z,28.00
2022-09-23T08:26:16.345Z,27.80
2022-09-23T08:28:27.248Z,27.50
2022-09-23T08:30:35.956Z,27.30
2022-09-23T08:32:43.087Z,27.20
2022-09-23T08:34:50.277Z,27.20
2022-09-23T08:36:57.400Z,27.10
2022-09-23T08:39:19.070Z,27.10
2022-09-23T08:41:42.225Z,27.20
2022-09-23T08:43:51.967Z,27.20
2022-09-23T08:46:14.137Z,27.30
2022-09-23T08:48:35.206Z,27.40
2022-09-23T08:51:00.106Z,27.30
2022-09-23T08:53:11.287Z,27.40
2022-09-23T08:55:36.914Z,27.30
2022-09-23T08:58:14.124Z,27.30
2022-09-23T09:00:39.953Z,27.40
2022-09-23T09:02:49.145Z,27.40
2022-09-23T09:05:00.460Z,27.40
2022-09-23T09:07:36.705Z,27.50
2022-09-23T09:10:02.692Z,27.50
2022-09-23T09:12:26.256Z,27.50
2022-09-23T09:14:51.156Z,27.60
2022-09-23T09:17:04.189Z,27.60
2022-09-23T09:19:33.473Z,27.60
2022-09-23T09:21:45.056Z,27.60
2022-09-23T09:23:57.159Z,27.60
2022-09-23T09:26:26.657Z,27.60
2022-09-23T09:28:52.374Z,27.50
2022-09-23T09:31:27.275Z,27.40
2022-09-23T09:33:40.590Z,27.40
2022-09-23T09:36:18.533Z,27.30
2022-09-23T09:38:25.669Z,27.30
2022-09-23T09:40:50.476Z,27.10
2022-09-23T09:42:57.653Z,27.00
2022-09-23T09:45:27.350Z,26.90
2022-09-23T09:47:48.457Z,26.80
2022-09-23T09:50:12.295Z,26.70
2022-09-23T09:52:33.493Z,26.60
2022-09-23T09:54:41.452Z,26.50
2022-09-23T09:56:49.643Z,26.40
2022-09-23T09:58:58.767Z,26.30
2022-09-23T10:01:06.680Z,26.30
2022-09-23T10:03:29.261Z,26.20
2022-09-23T10:05:38.132Z,26.30
2022-09-23T10:07:59.286Z,26.20
2022-09-23T10:10:32.311Z,26.10
2022-09-23T10:12:50.262Z,26.10
2022-09-23T10:15:00.977Z,26.00
2022-09-23T10:17:23.666Z,26.10
2022-09-23T10:19:32.508Z,26.00
2022-09-23T10:21:43.511Z,26.00
2022-09-23T10:23:54.427Z,26.00
2022-09-23T10:26:02.945Z,25.90
2022-09-23T10:28:48.421Z,25.90
2022-09-23T10:31:08.568Z,25.90
2022-09-23T10:33:30.536Z,25.90
2022-09-23T10:35:58.319Z,25.90
2022-09-23T10:38:17.770Z,25.90
2022-09-23T10:43:47.765Z,25.90
2022-09-23T10:46:12.985Z,25.90
2022-09-23T10:48:29.012Z,25.80
2022-09-23T10:50:51.600Z,25.80
2022-09-23T10:53:21.882Z,25.70
2022-09-23T10:56:17.806Z,25.80
2022-09-23T10:59:01.443Z,25.80
2022-09-23T11:01:23.686Z,25.80
2022-09-23T11:04:22.985Z,25.80
2022-09-23T11:06:56.692Z,25.80
2022-09-23T11:09:32.846Z,25.70
2022-09-23T11:12:07.851Z,25.70
2022-09-23T11:14:28.866Z,25.70
2022-09-23T11:16:47.990Z,25.70
2022-09-23T11:19:25.398Z,25.80
2022-09-23T11:21:58.394Z,25.80
2022-09-23T11:24:42.222Z,25.80
2022-09-23T11:27:00.933Z,25.70
2022-09-23T11:29:24.724Z,25.70
2022-09-23T11:31:58.739Z,25.70
2022-09-23T11:34:49.851Z,25.60
2022-09-23T11:37:02.406Z,25.60
2022-09-23T11:39:16.252Z,25.60
2022-09-23T11:41:28.648Z,25.60
2022-09-23T11:43:42.153Z,25.60
2022-09-23T11:46:04.261Z,25.60
2022-09-23T11:48:17.351Z,25.70
2022-09-23T11:50:30.681Z,25.80
2022-09-23T11:52:55.111Z,25.80
2022-09-23T11:55:22.981Z,25.80
2022-09-23T11:57:49.699Z,25.80
2022-09-23T12:00:17.096Z,25.80
2022-09-23T12:02:56.911Z,25.80
2022-09-23T12:05:26.320Z,25.80
2022-09-23T12:07:44.574Z,25.80
2022-09-23T12:10:01.068Z,25.70
2022-09-23T12:12:27.226Z,25.80
2022-09-23T12:14:57.673Z,25.70
2022-09-23T12:17:36.238Z,25.70
2022-09-23T12:20:10.404Z,25.70
2022-09-23T12:22:44.576Z,25.70
2022-09-23T12:24:59.433Z,25.70
2022-09-23T12:27:12.041Z,25.80
2022-09-23T12:29:34.430Z,25.80
2022-09-23T12:31:54.262Z,25.80
2022-09-23T12:34:04.460Z,25.80
2022-09-23T12:36:30.080Z,25.80
2022-09-23T12:38:54.354Z,25.80
2022-09-23T12:41:27.249Z,25.80
2022-09-23T12:43:36.623Z,25.80
2022-09-23T12:45:45.152Z,25.80
2022-09-23T12:48:05.746Z,25.80
2022-09-23T12:50:55.411Z,25.80
2022-09-23T12:53:55.383Z,25.80
2022-09-23T12:56:03.233Z,25.70
2022-09-23T12:58:41.593Z,25.70
2022-09-23T13:01:19.949Z,25.70
2022-09-23T13:04:07.377Z,25.70
2022-09-23T13:06:33.362Z,25.70
2022-09-23T13:08:42.467Z,25.70
2022-09-23T13:11:03.693Z,25.70
2022-09-23T13:13:13.501Z,25.70
2022-09-23T13:15:35.931Z,25.70
2022-09-23T13:17:55.596Z,25.80
2022-09-23T13:20:09.042Z,25.80
2022-09-23T13:22:37.818Z,25.80
2022-09-23T13:25:03.955Z,25.80
2022-09-23T13:27:21.515Z,25.80
2022-09-23T13:29:35.078Z,25.80
2022-09-23T13:31:44.940Z,25.80
2022-09-23T13:33:55.853Z,25.80
2022-09-23T13:36:06.065Z,25.80
2022-09-23T13:38:24.729Z,25.90
2022-09-23T13:40:47.088Z,25.80
2022-09-23T13:43:12.827Z,25.80
2022-09-23T13:45:22.765Z,25.90
2022-09-23T13:47:32.967Z,25.80
2022-09-23T13:49:52.795Z,25.80
2022-09-23T13:52:29.060Z,25.80
2022-09-23T13:54:53.700Z,25.80
2022-09-23T13:57:01.103Z,25.80
2022-09-23T13:59:28.082Z,25.80
2022-09-23T14:01:38.352Z,25.80
2022-09-23T14:03:45.725Z,25.80
2022-09-23T14:05:53.419Z,25.80
2022-09-23T14:08:13.507Z,25.80
2022-09-23T14:10:34.923Z,25.80
2022-09-23T14:12:55.412Z,25.90
2022-09-23T14:15:18.518Z,25.90
2022-09-23T14:17:38.042Z,25.90
2022-09-23T14:19:46.668Z,25.90
2022-09-23T14:22:09.258Z,25.90
2022-09-23T14:24:36.759Z,25.90
2022-09-23T14:27:01.807Z,25.90
2022-09-23T14:29:09.366Z,25.90
2022-09-23T14:31:28.836Z,25.90
2022-09-23T14:33:37.450Z,25.90
2022-09-23T14:36:01.316Z,25.90
2022-09-23T14:38:45.047Z,25.80
2022-09-23T14:41:20.287Z,25.80
2022-09-23T14:43:30.538Z,25.80
2022-09-23T14:45:53.375Z,25.80
2022-09-23T14:48:03.288Z,25.80
2022-09-23T14:50:44.623Z,25.80
2022-09-23T14:53:04.208Z,25.80
2022-09-23T14:55:20.141Z,25.80
2022-09-23T14:57:32.940Z,25.80
2022-09-23T14:59:57.375Z,25.80
2022-09-23T15:02:35.790Z,25.80
2022-09-23T15:04:55.201Z,25.80
2022-09-23T15:07:08.338Z,25.80
2022-09-23T15:09:30.004Z,25.80
2022-09-23T15:11:37.494Z,25.80
2022-09-23T15:13:47.093Z,25.90
2022-09-23T15:16:08.523Z,25.90
2022-09-23T15:18:30.282Z,25.90
2022-09-23T15:20:54.772Z,25.80
2022-09-23T15:23:36.816Z,25.80
2022-09-23T15:25:45.063Z,25.80
2022-09-23T15:28:03.630Z,25.80
2022-09-23T15:30:20.118Z,25.70
2022-09-23T15:32:43.478Z,25.70
2022-09-23T15:34:53.418Z,25.70
2022-09-23T15:37:14.013Z,25.70
2022-09-23T15:39:36.257Z,25.70
2022-09-23T15:41:44.514Z,25.60
2022-09-23T15:44:08.193Z,25.70
2022-09-23T15:46:17.103Z,25.60
2022-09-23T15:48:28.068Z,25.60
2022-09-23T15:50:36.428Z,25.60
2022-09-23T15:52:46.068Z,25.60
2022-09-23T15:55:05.599Z,25.60
2022-09-23T15:57:12.570Z,25.60
2022-09-23T15:59:32.394Z,25.60
2022-09-23T16:01:40.755Z,25.60
2022-09-23T16:03:49.985Z,25.60
2022-09-23T16:06:14.646Z,25.60
2022-09-23T16:08:24.415Z,25.60
2022-09-23T16:10:42.814Z,25.60
2022-09-23T16:12:50.411Z,25.50
2022-09-23T16:14:57.583Z,25.50
2022-09-23T16:17:17.668Z,25.50
2022-09-23T16:19:26.794Z,25.50
2022-09-23T16:21:46.275Z,25.50
2022-09-23T16:23:54.531Z,25.50
2022-09-23T16:26:19.737Z,25.50
2022-09-23T16:28:26.755Z,25.50
2022-09-23T16:30:35.374Z,25.60
2022-09-23T16:32:42.756Z,25.60
2022-09-23T16:34:51.545Z,25.60
2022-09-23T16:36:58.766Z,25.60
2022-09-23T16:39:07.841Z,25.60
2022-09-23T16:41:27.361Z,25.60
2022-09-23T16:43:46.521Z,25.60
2022-09-23T16:46:06.132Z,25.60
2022-09-23T16:48:25.876Z,25.70
2022-09-23T16:50:34.686Z,25.70
2022-09-23T16:52:41.872Z,25.60
2022-09-23T16:55:01.243Z,25.60
2022-09-23T16:57:21.017Z,25.60
2022-09-23T16:59:48.632Z,25.60
2022-09-23T17:02:28.080Z,25.60
2022-09-23T17:04:35.244Z,25.60
2022-09-23T17:06:57.584Z,25.50
2022-09-23T17:09:16.799Z,25.60
2022-09-23T17:11:36.280Z,25.60
2022-09-23T17:13:43.802Z,25.60
2022-09-23T17:16:03.465Z,25.60
2022-09-23T17:18:11.130Z,25.60
2022-09-23T17:20:30.453Z,25.60
2022-09-23T17:22:51.804Z,25.60
2022-09-23T17:24:59.050Z,25.60
2022-09-23T17:27:06.214Z,25.60
2022-09-23T17:29:16.110Z,25.50
2022-09-23T17:31:23.279Z,25.50
2022-09-23T17:33:32.014Z,25.50
2022-09-23T17:35:41.753Z,25.50
2022-09-23T17:38:03.125Z,25.40
2022-09-23T17:40:22.513Z,25.40
2022-09-23T17:42:30.127Z,25.40
2022-09-23T17:44:37.412Z,25.40
2022-09-23T17:46:56.677Z,25.40
2022-09-23T17:49:16.606Z,25.40
2022-09-23T17:51:23.532Z,25.40
2022-09-23T17:53:46.285Z,25.40
2022-09-23T17:56:06.978Z,25.40
2022-09-23T17:58:29.162Z,25.40
2022-09-23T18:00:36.270Z,25.40
2022-09-23T18:02:43.897Z,25.40
2022-09-23T18:05:03.201Z,25.40
2022-09-23T18:07:22.422Z,25.30
2022-09-23T18:09:31.707Z,25.30
2022-09-23T18:11:52.091Z,25.30
2022-09-23T18:14:00.858Z,25.30
2022-09-23T18:16:08.101Z,25.30
2022-09-23T18:18:27.456Z,25.30
2022-09-23T18:20:34.894Z,25.30
2022-09-23T18:22:41.663Z,25.20
2022-09-23T18:24:50.276Z,25.20
2022-09-23T18:27:10.114Z,25.20
2022-09-23T18:29:17.046Z,25.20
2022-09-23T18:31:25.090Z,25.20
2022-09-23T18:33:44.399Z,25.10
2022-09-23T18:36:04.281Z,25.10
2022-09-23T18:38:11.308Z,25.10
2022-09-23T18:40:32.628Z,25.10
2022-09-23T18:42:52.057Z,25.10
2022-09-23T18:44:59.640Z,25.10
2022-09-23T18:47:39.171Z,25.10
2022-09-23T18:50:02.535Z,25.10
2022-09-23T18:52:21.902Z,25.10
2022-09-23T18:54:30.572Z,25.20
2022-09-23T18:56:44.246Z,25.20
2022-09-23T18:58:51.905Z,25.20
2022-09-23T19:00:58.996Z,25.20
2022-09-23T19:03:20.384Z,25.10
2022-09-23T19:05:27.621Z,25.10
2022-09-23T19:07:34.704Z,25.10
2022-09-23T19:09:41.625Z,25.10
2022-09-23T19:12:03.553Z,25.00
2022-09-23T19:14:11.766Z,25.10
2022-09-23T19:16:32.758Z,25.00
2022-09-23T19:18:52.999Z,25.10
2022-09-23T19:21:14.217Z,25.10
2022-09-23T19:23:21.756Z,25.10
2022-09-23T19:25:41.270Z,25.20
2022-09-23T19:28:02.278Z,25.10
2022-09-23T19:30:10.379Z,25.10
2022-09-23T19:32:17.827Z,25.00
2022-09-23T19:34:38.825Z,25.10
2022-09-23T19:37:00.206Z,25.10
2022-09-23T19:39:09.619Z,25.00
2022-09-23T19:41:32.834Z,25.00
2022-09-23T19:43:41.904Z,25.00
2022-09-23T19:45:56.107Z,25.10
2022-09-23T19:48:03.230Z,25.00
2022-09-23T19:50:11.742Z,25.00
2022-09-23T19:52:31.420Z,25.00
2022-09-23T19:54:50.886Z,25.10
2022-09-23T19:57:10.051Z,25.00
2022-09-23T19:59:30.968Z,24.90
2022-09-23T20:01:50.397Z,24.90
2022-09-23T20:03:57.866Z,24.90
2022-09-23T20:06:05.297Z,24.90
2022-09-23T20:08:12.278Z,24.90
2022-09-23T20:10:19.831Z,24.90
2022-09-23T20:12:38.832Z,24.90
2022-09-23T20:14:47.492Z,24.90
2022-09-23T20:17:06.605Z,25.00
2022-09-23T20:19:26.124Z,25.00
2022-09-23T20:21:45.550Z,25.00
2022-09-23T20:24:08.042Z,25.00
2022-09-23T20:26:43.740Z,25.10
2022-09-23T20:29:03.461Z,25.10
2022-09-23T20:31:12.975Z,25.10
2022-09-23T20:33:32.311Z,25.10
2022-09-23T20:35:54.954Z,25.10
2022-09-23T20:38:14.077Z,25.10
2022-09-23T20:40:33.619Z,25.10
2022-09-23T20:42:53.003Z,25.10
2022-09-23T20:45:13.246Z,25.20
2022-09-23T20:47:22.777Z,25.20
2022-09-23T20:49:43.998Z,25.20
2022-09-23T20:51:51.895Z,25.20
2022-09-23T20:53:59.276Z,25.20
2022-09-23T20:56:20.028Z,25.20
2022-09-23T20:58:40.280Z,25.10
2022-09-23T21:01:05.668Z,25.10
2022-09-23T21:03:14.694Z,25.10
2022-09-23T21:05:21.776Z,25.10
2022-09-23T21:07:28.662Z,25.20
2022-09-23T21:09:48.018Z,25.10
2022-09-23T21:11:54.889Z,25.10
2022-09-23T21:14:14.418Z,25.20
2022-09-23T21:16:33.943Z,25.20
2022-09-23T21:18:55.246Z,25.20
2022-09-23T21:21:15.395Z,25.20
2022-09-23T21:23:22.410Z,25.20
2022-09-23T21:25:41.775Z,25.10
2022-09-23T21:27:48.906Z,25.10
2022-09-23T21:30:08.632Z,25.10
2022-09-23T21:32:28.256Z,25.20
2022-09-23T21:34:49.525Z,25.20
2022-09-23T21:36:57.774Z,25.20
2022-09-23T21:39:16.987Z,25.20
2022-09-23T21:41:36.820Z,25.20
2022-09-23T21:43:56.709Z,25.20
2022-09-23T21:46:05.103Z,25.20
2022-09-23T21:48:25.395Z,25.20
2022-09-23T21:50:38.259Z,25.20
2022-09-23T21:52:46.055Z,25.20
2022-09-23T21:54:53.341Z,25.20
2022-09-23T21:57:01.445Z,25.10
2022-09-23T21:59:21.169Z,25.10
2022-09-23T22:01:42.047Z,25.10
2022-09-23T22:03:53.108Z,25.10
2022-09-23T22:06:12.673Z,25.10
2022-09-23T22:08:19.745Z,25.10
2022-09-23T22:10:40.442Z,25.10
2022-09-23T22:13:00.231Z,25.10
2022-09-23T22:15:20.817Z,25.10
2022-09-23T22:17:40.238Z,25.10
2022-09-23T22:19:59.833Z,25.00
2022-09-23T22:22:21.478Z,25.10
2022-09-23T22:24:28.503Z,25.00
2022-09-23T22:26:37.380Z,25.00
2022-09-23T22:29:00.853Z,25.10
2022-09-23T22:31:36.820Z,25.00
2022-09-23T22:33:43.893Z,25.00
2022-09-23T22:36:06.006Z,25.00
2022-09-23T22:38:14.778Z,25.00
2022-09-23T22:40:22.399Z,25.00
2022-09-23T22:42:29.292Z,25.00
2022-09-23T22:44:36.783Z,25.00
2022-09-23T22:46:56.289Z,24.90
2022-09-23T22:49:16.286Z,24.90
2022-09-23T22:51:35.601Z,24.90
2022-09-23T22:53:44.368Z,25.00
2022-09-23T22:56:04.266Z,24.90
2022-09-23T22:58:31.102Z,24.90
2022-09-23T23:00:51.130Z,24.90
2022-09-23T23:03:10.493Z,24.90
2022-09-23T23:05:17.981Z,24.90
2022-09-23T23:07:25.789Z,24.90
2022-09-23T23:09:34.708Z,24.90
2022-09-23T23:11:43.465Z,24.90
2022-09-23T23:14:03.623Z,24.90
2022-09-23T23:16:26.494Z,24.90
2022-09-23T23:18:46.687Z,24.90
2022-09-23T23:20:53.719Z,24.90
2022-09-23T23:23:03.312Z,24.90
2022-09-23T23:25:24.676Z,25.00
2022-09-23T23:27:31.751Z,25.00
2022-09-23T23:29:50.909Z,25.00
2022-09-23T23:31:58.095Z,24.90
2022-09-23T23:34:05.189Z,25.00
2022-09-23T23:36:13.228Z,25.00
2022-09-23T23:38:20.409Z,25.00
2022-09-23T23:40:29.063Z,25.00
2022-09-23T23:42:36.048Z,25.00
2022-09-23T23:44:55.320Z,25.00
2022-09-23T23:47:02.907Z,25.00
2022-09-23T23:49:10.036Z,25.10
2022-09-23T23:51:30.989Z,25.10
2022-09-23T23:53:50.358Z,25.10
2022-09-23T23:56:13.490Z,25.10
2022-09-23T23:58:32.571Z,25.10
